Flight Track Log - Related Links

Times and Time Zones

All times are in EDT time to prevent confusion due to time zone crossing. See the SWA2624 flight status page for this flight to view local times or setup timezone preferences in your user account.

Time Position Orientation Groundspeed Altitude Reporting Facility
EDT Latitude Longitude Course Direction KTS MPH feet Rate Location/Type
Fri 09:20:17 AM 47.4417 -122.3100 179° South 147 169 1,200  Level Seattle Center
Fri 09:20:59 AM 47.4114 -122.3094 179° South 154 177 2,800 2,330 Climbing Seattle Center
Fri 09:22:00 AM 47.3531 -122.3089 180° South 208 239 5,200 2,658 Climbing Seattle Center
Fri 09:22:18 AM 47.3219 -122.3106 182° South 265 305 6,300 4,200 Climbing Seattle Center
Fri 09:23:00 AM 47.2692 -122.3086 179° South 278 320 9,400 3,845 Climbing Seattle Center
Fri 09:24:01 AM 47.1811 -122.2925 173° South 328 377 12,900 2,826 Climbing Seattle Center
Fri 09:25:01 AM 47.0864 -122.2689 170° South 346 398 15,100 1,289 Climbing Seattle Center
Fri 09:26:02 AM 46.9928 -122.2111 157° South 366 421 15,500 1,488 Climbing Seattle Center
Fri 09:27:02 AM 46.9019 -122.1569 158° South 375 432 18,100 2,579 Climbing Seattle Center
Fri 09:28:03 AM 46.8075 -122.0642 146° Southeast 409 471 20,700 2,628 Climbing Seattle Center
Fri 09:29:03 AM 46.7114 -121.9542 142° Southeast 436 502 23,400 2,678 Climbing Seattle Center
Fri 09:30:04 AM 46.6117 -121.8403 142° Southeast 454 522 26,100 2,459 Climbing Seattle Center
Fri 09:31:05 AM 46.5103 -121.7253 142° Southeast 466 536 28,400 2,033 Climbing Seattle Center
Fri 09:32:05 AM 46.4053 -121.6050 142° Southeast 480 552 30,200 1,785 Climbing Seattle Center
Fri 09:33:06 AM 46.2908 -121.4769 142° Southeast 503 579 32,000 1,820 Climbing Seattle Center
Fri 09:34:07 AM 46.1764 -121.3511 143° Southeast 513 590 33,900 2,182 Climbing Seattle Center
Fri 09:35:07 AM 46.0628 -121.2261 143° Southeast 516 594 36,400 1,934 Climbing Seattle Center
Fri 09:36:08 AM 45.9528 -121.1031 142° Southeast 505 581 37,800 1,230 Climbing Seattle Center
Fri 09:37:09 AM 45.8394 -120.9794 143° Southeast 511 588 38,900 1,488 Climbing Seattle Center
Fri 09:38:09 AM 45.7039 -120.8314 143° Southeast 512 589 40,800 1,041 Climbing Seattle Center
Fri 09:39:10 AM 45.5944 -120.7117 143° Southeast 501 577 41,000 98 Climbing Seattle Center
Fri 09:40:11 AM 45.4833 -120.5908 143° Southeast 501 577 41,000  Level Seattle Center
Fri 09:41:11 AM 45.3722 -120.4733 143° Southeast 500 575 41,000  Level Seattle Center
Fri 09:42:12 AM 45.2608 -120.3564 144° Southeast 499 574 41,000  Level Seattle Center
Fri 09:43:13 AM 45.1511 -120.2375 143° Southeast 499 574 41,000  Level Seattle Center
Fri 09:44:14 AM 45.0425 -120.1242 144° Southeast 493 567 41,000  Level Seattle Center
Fri 09:45:14 AM 44.9358 -120.0086 143° Southeast 496 571 41,000  Level Seattle Center
Fri 09:46:15 AM 44.8317 -119.9006 144° Southeast 494 568 41,000  Level Seattle Center
Fri 09:47:16 AM 44.7003 -119.7656 144° Southeast 489 563 41,000  Level Seattle Center
Fri 09:48:16 AM 44.5850 -119.6706 150° Southeast 484 557 41,000  Level Seattle Center
Fri 09:49:17 AM 44.4628 -119.5944 156° South 482 555 41,000  Level Seattle Center
Fri 09:50:18 AM 44.3400 -119.5186 156° South 483 556 41,000  Level Seattle Center
Fri 09:51:18 AM 44.2178 -119.4428 156° South 482 555 41,000  Level Seattle Center
Fri 09:52:19 AM 44.0956 -119.3678 156° South 480 552 41,000  Level Seattle Center
Fri 09:53:20 AM 43.9742 -119.2925 156° South 481 554 41,000  Level Seattle Center
Fri 09:54:21 AM 43.8519 -119.2200 157° South 479 551 41,000  Level Seattle Center
Fri 09:55:21 AM 43.7319 -119.1431 155° Southeast 478 550 41,000  Level Seattle Center
Fri 09:56:22 AM 43.6253 -119.0314 143° Southeast 484 557 41,000  Level Seattle Center
Fri 09:57:23 AM 43.5203 -118.9189 142° Southeast 480 552 41,000  Level Seattle Center
Fri 09:58:24 AM 43.4022 -118.7922 142° Southeast 483 556 41,000  Level Seattle Center
Fri 09:59:25 AM 43.3014 -118.6836 142° Southeast 482 555 41,000  Level Seattle Center
Fri 10:00:22 AM 43.2008 -118.5769 142° Southeast 481 554 41,000  Level Salt Lake Center
Fri 10:01:24 AM 43.0961 -118.4664 142° Southeast 485 558 41,000  Level Salt Lake Center
Fri 10:02:25 AM 42.9908 -118.3539 142° Southeast 483 556 41,000  Level Salt Lake Center
Fri 10:03:27 AM 42.8853 -118.2428 142° Southeast 480 552 41,000  Level Salt Lake Center
Fri 10:04:28 AM 42.7589 -118.1092 142° Southeast 489 563 41,000  Level Salt Lake Center
Fri 10:05:29 AM 42.6581 -118.0028 142° Southeast 484 557 41,000  Level Salt Lake Center
Fri 10:06:31 AM 42.5392 -117.8794 143° Southeast 483 556 41,000  Level Salt Lake Center
Fri 10:07:32 AM 42.4361 -117.7722 142° Southeast 486 559 41,000  Level Salt Lake Center
Fri 10:08:34 AM 42.3342 -117.6669 143° Southeast 484 557 41,000  Level Salt Lake Center
Fri 10:09:35 AM 42.2131 -117.5444 143° Southeast 476 548 41,000  Level Salt Lake Center
Fri 10:10:37 AM 42.1111 -117.4408 143° Southeast 477 549 41,000  Level Salt Lake Center
Fri 10:11:38 AM 42.0083 -117.3339 142° Southeast 487 560 41,000  Level Salt Lake Center
Fri 10:12:40 AM 41.8892 -117.2142 143° Southeast 478 550 41,000  Level Salt Lake Center
Fri 10:13:41 AM 41.7869 -117.1097 143° Southeast 481 554 41,000  Level Salt Lake Center
Fri 10:14:43 AM 41.6686 -116.9922 143° Southeast 474 545 41,000  Level Salt Lake Center
Fri 10:15:44 AM 41.5661 -116.8900 143° Southeast 477 549 41,000  Level Salt Lake Center
Fri 10:16:46 AM 41.4644 -116.7894 143° Southeast 475 547 41,000  Level Salt Lake Center
Fri 10:17:48 AM 41.3461 -116.6719 143° Southeast 474 545 41,000  Level Salt Lake Center
Fri 10:18:49 AM 41.2444 -116.5703 143° Southeast 475 547 41,000  Level Salt Lake Center
Fri 10:19:51 AM 41.1253 -116.4542 144° Southeast 475 547 41,000  Level Salt Lake Center
Fri 10:20:52 AM 41.0214 -116.3517 143° Southeast 479 551 41,000  Level Salt Lake Center
Fri 10:21:54 AM 40.9167 -116.2486 143° Southeast 485 558 41,000  Level Salt Lake Center
Fri 10:22:56 AM 40.7950 -116.1308 144° Southeast 483 556 41,000  Level Salt Lake Center
Fri 10:23:57 AM 40.6925 -116.0319 144° Southeast 476 548 41,000  Level Salt Lake Center
Fri 10:24:59 AM 40.5719 -115.9158 144° Southeast 477 549 41,000  Level Salt Lake Center
Fri 10:26:01 AM 40.4692 -115.8178 144° Southeast 475 547 41,000  Level Salt Lake Center
Fri 10:27:02 AM 40.3714 -115.7214 143° Southeast 465 535 41,000  Level Salt Lake Center
Fri 10:28:04 AM 40.2525 -115.6081 144° Southeast 467 537 41,000  Level Salt Lake Center
Fri 10:29:06 AM 40.1500 -115.5108 144° Southeast 471 542 41,000  Level Salt Lake Center
Fri 10:30:07 AM 40.0306 -115.3994 144° Southeast 472 543 41,000  Level Salt Lake Center
Fri 10:31:09 AM 39.9289 -115.3036 144° Southeast 470 541 41,000  Level Salt Lake Center
Fri 10:32:11 AM 39.8269 -115.2083 144° Southeast 469 540 41,000  Level Salt Lake Center
Fri 10:33:12 AM 39.7086 -115.0969 144° Southeast 470 541 41,000  Level Salt Lake Center
Fri 10:34:14 AM 39.6053 -115.0028 145° Southeast 472 543 41,000  Level Salt Lake Center
Fri 10:35:16 AM 39.4861 -114.8917 144° Southeast 472 543 41,000  Level Salt Lake Center
Fri 10:36:18 AM 39.3806 -114.7992 146° Southeast 476 548 41,000  Level Salt Lake Center
Fri 10:37:19 AM 39.2603 -114.6883 144° Southeast 476 548 41,000  Level Salt Lake Center
Fri 10:38:21 AM 39.1658 -114.6008 144° Southeast 472 543 41,000  Level Salt Lake Center
Fri 10:39:23 AM 39.0597 -114.5017 144° Southeast 473 544 41,000  Level Salt Lake Center
Fri 10:40:25 AM 38.9311 -114.3856 145° Southeast 471 542 41,000  Level Salt Lake Center
Fri 10:41:27 AM 38.8247 -114.2889 145° Southeast 470 541 41,000  Level Salt Lake Center
Fri 10:42:29 AM 38.7167 -114.1931 145° Southeast 471 542 41,000  Level Salt Lake Center
Fri 10:43:30 AM 38.6114 -114.0969 144° Southeast 469 540 41,000  Level Salt Lake Center
Fri 10:44:32 AM 38.5036 -114.0019 145° Southeast 470 541 41,000  Level Salt Lake Center
Fri 10:45:34 AM 38.3964 -113.9050 145° Southeast 472 543 41,000  Level Salt Lake Center
Fri 10:46:36 AM 38.2675 -113.7931 146° Southeast 470 541 41,000  Level Salt Lake Center
Fri 10:47:38 AM 38.1600 -113.6978 145° Southeast 470 541 41,000  Level Salt Lake Center
Fri 10:48:40 AM 38.0514 -113.6075 147° Southeast 470 541 41,000 -97 Level Salt Lake Center
Fri 10:49:42 AM 37.9453 -113.5133 145° Southeast 468 539 40,800 -581 Descending Salt Lake Center
Fri 10:50:44 AM 37.8281 -113.4378 153° Southeast 476 548 39,800 -919 Descending Salt Lake Center
Fri 10:51:46 AM 37.7114 -113.3672 154° Southeast 471 542 38,900 -990 Descending Salt Lake Center
Fri 10:52:27 AM 37.6183 -113.3106 154° Southeast 471 542 38,100 -524 Descending Los Angeles Center
Fri 10:53:29 AM 37.5050 -113.2408 154° Southeast 463 533 38,000 -146 Descending Los Angeles Center
Fri 10:54:30 AM 37.4142 -113.1864 155° Southeast 460 529 37,800 -750 Descending Los Angeles Center
Fri 10:55:45 AM 37.2294 -113.0742 154° Southeast 466 536 36,300 -1,051 Descending Los Angeles Center
Fri 10:56:47 AM 37.1128 -113.0039 154° Southeast 467 537 35,400 -919 Descending Los Angeles Center
Fri 10:57:49 AM 36.9956 -112.9344 155° Southeast 469 540 34,400 -968 Descending Los Angeles Center
Fri 10:58:51 AM 36.8775 -112.8642 155° Southeast 471 542 33,400 -677 Descending Los Angeles Center
Fri 10:59:53 AM 36.7594 -112.7947 155° Southeast 471 542 33,000 -194 Descending Los Angeles Center
Fri 11:00:55 AM 36.6183 -112.7111 155° Southeast 468 539 33,000  Level Los Angeles Center
Fri 11:01:57 AM 36.5000 -112.6428 155° Southeast 469 540 33,000  Level Los Angeles Center
Fri 11:02:59 AM 36.3817 -112.5736 155° Southeast 470 541 33,000  Level Los Angeles Center
Fri 11:04:01 AM 36.2633 -112.5053 155° Southeast 470 541 33,000 -309 Level Los Angeles Center
Fri 11:05:15 AM 36.1361 -112.4669 166° South 473 544 32,300 -788 Descending Los Angeles Center
Fri 11:06:18 AM 35.9781 -112.4622 179° South 472 543 31,200 -1,056 Descending Los Angeles Center
Fri 11:07:20 AM 35.8422 -112.4578 178° South 464 534 30,100 -1,065 Descending Los Angeles Center
Fri 11:08:22 AM 35.7133 -112.4525 178° South 463 533 29,000 -532 Descending Los Angeles Center
Fri 11:09:24 AM 35.5853 -112.4456 177° South 461 531 29,000  Level Los Angeles Center
Fri 11:10:26 AM 35.4331 -112.4403 178° South 454 522 29,000  Level Los Angeles Center
Fri 11:11:28 AM 35.3056 -112.4189 172° South 457 526 29,000  Level Los Angeles Center
Fri 11:12:30 AM 35.1794 -112.3883 169° South 457 526 29,000  Level Los Angeles Center
Fri 11:13:32 AM 35.0556 -112.3600 169° South 451 519 29,000 -406 Level Los Angeles Center
Fri 11:14:43 AM 34.9064 -112.3256 169° South 451 519 28,100 -857 Descending Albuquerque Center
Fri 11:15:45 AM 34.7861 -112.2981 169° South 443 510 27,100 -968 Descending Albuquerque Center
Fri 11:16:47 AM 34.6636 -112.2694 169° South 439 505 26,100 -1,161 Descending Albuquerque Center
Fri 11:17:49 AM 34.5458 -112.2425 169° South 433 498 24,700 -2,032 Descending Albuquerque Center
Fri 11:18:51 AM 34.4117 -112.2114 169° South 415 478 21,900 -2,419 Descending Albuquerque Center
Fri 11:19:53 AM 34.3050 -112.1869 169° South 396 456 19,700 -2,226 Descending Albuquerque Center
Fri 11:20:55 AM 34.2022 -112.1631 169° South 380 437 17,300 -1,790 Descending Albuquerque Center
Fri 11:21:57 AM 34.1064 -112.1408 169° South 356 410 16,000 -1,258 Descending Albuquerque Center
Fri 11:22:59 AM 34.0214 -112.1194 168° South 316 364 14,700 -1,500 Descending Albuquerque Center
Fri 11:24:01 AM 33.9217 -112.0942 168° South 308 354 12,900 -1,597 Descending Albuquerque Center
Fri 11:25:03 AM 33.8408 -112.0736 168° South 303 349 11,400 -1,403 Descending Albuquerque Center
Fri 11:26:05 AM 33.7597 -112.0536 168° South 301 346 10,000 -677 Descending Albuquerque Center
Fri 11:27:07 AM 33.6775 -112.0389 172° South 301 346 10,000  Level Albuquerque Center
Fri 11:28:09 AM 33.5944 -112.0244 172° South 302 348 10,000 -98 Level Albuquerque Center
Fri 11:29:10 AM 33.5103 -112.0250 180° South 304 350 9,800 -1,181 Descending Albuquerque Center
Fri 11:30:16 AM 33.4000 -112.0333 184° South 301 346 7,500 -1,403 Descending Phoenix TRACON
Fri 11:31:14 AM 33.3383 -112.0064 160° South 282 325 6,900 -550 Descending Albuquerque Center
Fri 11:32:16 AM 33.3342 -111.9319 94° East 229 264 6,400 -871 Descending Albuquerque Center
Fri 11:33:18 AM 33.3358 -111.8614 88° East 216 249 5,100 -1,161 Descending Albuquerque Center
Fri 11:34:20 AM 33.3733 -111.8169 45° Northeast 225 259 4,000 -871 Descending Albuquerque Center
Fri 11:35:22 AM 33.4194 -111.8611 321° Northwest 207 238 3,300 -769 Descending Albuquerque Center
Fri 11:36:17 AM 33.4333 -111.9167 287° West 195 224 2,500 -931 Descending Phoenix TRACON
Fri 11:37:18 AM 33.4333 -111.9667 270° West 158 182 1,500 -984 Descending Phoenix TRACON

Login

Don't have an account? Register now (free) for customized features, flight alerts, and more!